sensor_id;sensor_type;location;lat;lon;timestamp;temperature;humidity
11991;DHT22;6055;52.522;13.446;2022-10-17T00:01:04;14.70;99.90
11991;DHT22;6055;52.522;13.446;2022-10-17T00:03:30;14.70;99.90
11991;DHT22;6055;52.522;13.446;2022-10-17T00:05:55;14.80;99.90
11991;DHT22;6055;52.522;13.446;2022-10-17T00:08:21;14.80;99.90
11991;DHT22;6055;52.522;13.446;2022-10-17T00:11:02;14.80;99.90
11991;DHT22;6055;52.522;13.446;2022-10-17T00:13:28;14.80;99.90
11991;DHT22;6055;52.522;13.446;2022-10-17T00:15:54;14.80;99.90
11991;DHT22;6055;52.522;13.446;2022-10-17T00:18:19;14.80;99.90
11991;DHT22;6055;52.522;13.446;2022-10-17T00:20:45;14.80;99.90
11991;DHT22;6055;52.522;13.446;2022-10-17T00:23:10;14.80;99.90
11991;DHT22;6055;52.522;13.446;2022-10-17T00:25:36;14.80;99.90
11991;DHT22;6055;52.522;13.446;2022-10-17T00:28:02;14.80;99.90
11991;DHT22;6055;52.522;13.446;2022-10-17T00:30:27;14.90;99.90
11991;DHT22;6055;52.522;13.446;2022-10-17T00:32:53;14.80;99.90
11991;DHT22;6055;52.522;13.446;2022-10-17T00:35:18;14.80;99.90
11991;DHT22;6055;52.522;13.446;2022-10-17T00:37:44;14.70;99.90
11991;DHT22;6055;52.522;13.446;2022-10-17T00:40:10;14.70;99.90
11991;DHT22;6055;52.522;13.446;2022-10-17T00:42:35;14.70;99.90
11991;DHT22;6055;52.522;13.446;2022-10-17T00:45:26;14.60;99.90
11991;DHT22;6055;52.522;13.446;2022-10-17T00:48:02;14.60;99.90
11991;DHT22;6055;52.522;13.446;2022-10-17T00:50:30;14.60;99.90
11991;DHT22;6055;52.522;13.446;2022-10-17T00:52:57;14.60;99.90
11991;DHT22;6055;52.522;13.446;2022-10-17T00:55:27;14.60;99.90
11991;DHT22;6055;52.522;13.446;2022-10-17T00:57:56;14.60;99.90
11991;DHT22;6055;52.522;13.446;2022-10-17T01:00:23;14.60;99.90
11991;DHT22;6055;52.522;13.446;2022-10-17T01:02:48;14.60;99.90
11991;DHT22;6055;52.522;13.446;2022-10-17T01:05:15;14.60;99.90
11991;DHT22;6055;52.522;13.446;2022-10-17T01:07:41;14.60;99.90
11991;DHT22;6055;52.522;13.446;2022-10-17T01:10:08;14.70;99.90
11991;DHT22;6055;52.522;13.446;2022-10-17T01:24:11;14.70;99.90
11991;DHT22;6055;52.522;13.446;2022-10-17T01:29:52;14.50;99.90
11991;DHT22;6055;52.522;13.446;2022-10-17T01:34:54;14.50;99.90
11991;DHT22;6055;52.522;13.446;2022-10-17T01:37:32;14.40;99.90
11991;DHT22;6055;52.522;13.446;2022-10-17T01:40:06;14.40;99.90
11991;DHT22;6055;52.522;13.446;2022-10-17T01:45:46;14.40;99.90
11991;DHT22;6055;52.522;13.446;2022-10-17T01:48:17;14.40;99.90
11991;DHT22;6055;52.522;13.446;2022-10-17T01:50:49;14.40;99.90
11991;DHT22;6055;52.522;13.446;2022-10-17T01:53:24;14.30;99.90
11991;DHT22;6055;52.522;13.446;2022-10-17T01:55:53;14.40;99.90
11991;DHT22;6055;52.522;13.446;2022-10-17T01:58:24;14.30;99.90
11991;DHT22;6055;52.522;13.446;2022-10-17T02:00:53;14.30;99.90
11991;DHT22;6055;52.522;13.446;2022-10-17T02:03:21;14.30;99.90
11991;DHT22;6055;52.522;13.446;2022-10-17T02:05:48;14.30;99.90
11991;DHT22;6055;52.522;13.446;2022-10-17T02:08:23;14.30;99.90
11991;DHT22;6055;52.522;13.446;2022-10-17T02:10:59;14.30;99.90
11991;DHT22;6055;52.522;13.446;2022-10-17T02:13:45;14.20;99.90
11991;DHT22;6055;52.522;13.446;2022-10-17T02:16:50;14.20;99.90
11991;DHT22;6055;52.522;13.446;2022-10-17T02:19:42;14.20;99.90
11991;DHT22;6055;52.522;13.446;2022-10-17T02:24:52;14.20;99.90
11991;DHT22;6055;52.522;13.446;2022-10-17T02:27:42;14.10;99.90
11991;DHT22;6055;52.522;13.446;2022-10-17T02:30:28;14.10;99.90
11991;DHT22;6055;52.522;13.446;2022-10-17T02:33:08;14.10;99.90
11991;DHT22;6055;52.522;13.446;2022-10-17T02:35:38;14.10;99.90
11991;DHT22;6055;52.522;13.446;2022-10-17T02:38:06;14.10;99.90
11991;DHT22;6055;52.522;13.446;2022-10-17T02:40:33;14.20;99.90
11991;DHT22;6055;52.522;13.446;2022-10-17T02:43:00;14.20;99.90
11991;DHT22;6055;52.522;13.446;2022-10-17T02:45:27;14.20;99.90
11991;DHT22;6055;52.522;13.446;2022-10-17T02:48:50;14.30;99.90
11991;DHT22;6055;52.522;13.446;2022-10-17T02:51:03;14.30;99.90
11991;DHT22;6055;52.522;13.446;2022-10-17T02:54:04;14.30;99.90
11991;DHT22;6055;52.522;13.446;2022-10-17T02:56:38;14.20;99.90
11991;DHT22;6055;52.522;13.446;2022-10-17T02:59:08;14.20;99.90
11991;DHT22;6055;52.522;13.446;2022-10-17T03:01:36;14.20;99.90
11991;DHT22;6055;52.522;13.446;2022-10-17T03:06:31;14.20;99.90
11991;DHT22;6055;52.522;13.446;2022-10-17T03:08:57;14.20;99.90
11991;DHT22;6055;52.522;13.446;2022-10-17T03:11:22;14.20;99.90
11991;DHT22;6055;52.522;13.446;2022-10-17T03:13:48;14.20;99.90
11991;DHT22;6055;52.522;13.446;2022-10-17T03:16:13;14.10;99.90
11991;DHT22;6055;52.522;13.446;2022-10-17T03:18:39;14.10;99.90
11991;DHT22;6055;52.522;13.446;2022-10-17T03:21:04;14.10;99.90
11991;DHT22;6055;52.522;13.446;2022-10-17T03:23:30;14.10;99.90
11991;DHT22;6055;52.522;13.446;2022-10-17T03:25:55;14.10;99.90
11991;DHT22;6055;52.522;13.446;2022-10-17T03:28:21;14.10;99.90
11991;DHT22;6055;52.522;13.446;2022-10-17T03:30:46;14.10;99.90
11991;DHT22;6055;52.522;13.446;2022-10-17T03:33:12;14.10;99.90
11991;DHT22;6055;52.522;13.446;2022-10-17T03:35:38;14.20;99.90
11991;DHT22;6055;52.522;13.446;2022-10-17T03:38:04;14.10;99.90
11991;DHT22;6055;52.522;13.446;2022-10-17T03:40:29;14.20;99.90
11991;DHT22;6055;52.522;13.446;2022-10-17T03:42:55;14.20;99.90
11991;DHT22;6055;52.522;13.446;2022-10-17T03:45:21;14.20;99.90
11991;DHT22;6055;52.522;13.446;2022-10-17T03:47:46;14.20;99.90
11991;DHT22;6055;52.522;13.446;2022-10-17T03:50:12;14.20;99.90
11991;DHT22;6055;52.522;13.446;2022-10-17T03:52:40;14.20;99.90
11991;DHT22;6055;52.522;13.446;2022-10-17T03:55:05;14.10;99.90
11991;DHT22;6055;52.522;13.446;2022-10-17T03:57:34;14.10;99.90
11991;DHT22;6055;52.522;13.446;2022-10-17T04:00:00;14.10;99.90
11991;DHT22;6055;52.522;13.446;2022-10-17T04:02:25;14.10;99.90
11991;DHT22;6055;52.522;13.446;2022-10-17T04:04:51;14.10;99.90
11991;DHT22;6055;52.522;13.446;2022-10-17T04:07:16;14.10;99.90
11991;DHT22;6055;52.522;13.446;2022-10-17T04:09:42;14.10;99.90
11991;DHT22;6055;52.522;13.446;2022-10-17T04:12:07;14.10;99.90
11991;DHT22;6055;52.522;13.446;2022-10-17T04:14:33;14.10;99.90
11991;DHT22;6055;52.522;13.446;2022-10-17T04:16:58;14.10;99.90
11991;DHT22;6055;52.522;13.446;2022-10-17T04:19:24;14.10;99.90
11991;DHT22;6055;52.522;13.446;2022-10-17T04:21:50;14.10;99.90
11991;DHT22;6055;52.522;13.446;2022-10-17T04:24:15;14.10;99.90
11991;DHT22;6055;52.522;13.446;2022-10-17T04:26:41;14.10;99.90
11991;DHT22;6055;52.522;13.446;2022-10-17T04:29:06;14.10;99.90
11991;DHT22;6055;52.522;13.446;2022-10-17T04:31:32;14.10;99.90
11991;DHT22;6055;52.522;13.446;2022-10-17T04:33:57;14.10;99.90
11991;DHT22;6055;52.522;13.446;2022-10-17T04:36:23;14.00;99.90
11991;DHT22;6055;52.522;13.446;2022-10-17T04:38:48;14.00;99.90
11991;DHT22;6055;52.522;13.446;2022-10-17T04:41:16;14.00;99.90
11991;DHT22;6055;52.522;13.446;2022-10-17T04:43:42;14.00;99.90
11991;DHT22;6055;52.522;13.446;2022-10-17T04:46:10;14.00;99.90
11991;DHT22;6055;52.522;13.446;2022-10-17T04:48:37;14.00;99.90
11991;DHT22;6055;52.522;13.446;2022-10-17T04:51:05;14.00;99.90
11991;DHT22;6055;52.522;13.446;2022-10-17T04:53:33;14.00;99.90
11991;DHT22;6055;52.522;13.446;2022-10-17T04:55:59;14.00;99.90
11991;DHT22;6055;52.522;13.446;2022-10-17T04:58:27;13.90;99.90
11991;DHT22;6055;52.522;13.446;2022-10-17T05:00:52;13.90;99.90
11991;DHT22;6055;52.522;13.446;2022-10-17T05:03:18;13.90;99.90
11991;DHT22;6055;52.522;13.446;2022-10-17T05:05:43;13.90;99.90
11991;DHT22;6055;52.522;13.446;2022-10-17T05:08:10;13.90;99.90
11991;DHT22;6055;52.522;13.446;2022-10-17T05:10:40;13.90;99.90
11991;DHT22;6055;52.522;13.446;2022-10-17T05:13:07;13.90;99.90
11991;DHT22;6055;52.522;13.446;2022-10-17T05:15:33;13.80;99.90
11991;DHT22;6055;52.522;13.446;2022-10-17T05:17:58;13.80;99.90
11991;DHT22;6055;52.522;13.446;2022-10-17T05:20:24;13.80;99.90
11991;DHT22;6055;52.522;13.446;2022-10-17T05:22:50;13.80;99.90
11991;DHT22;6055;52.522;13.446;2022-10-17T05:25:16;13.80;99.90
11991;DHT22;6055;52.522;13.446;2022-10-17T05:27:41;13.80;99.90
11991;DHT22;6055;52.522;13.446;2022-10-17T05:30:07;13.80;99.90
11991;DHT22;6055;52.522;13.446;2022-10-17T05:32:33;13.70;99.90
11991;DHT22;6055;52.522;13.446;2022-10-17T05:34:58;13.70;99.90
11991;DHT22;6055;52.522;13.446;2022-10-17T05:37:24;13.80;99.90
11991;DHT22;6055;52.522;13.446;2022-10-17T05:39:50;13.80;99.90
11991;DHT22;6055;52.522;13.446;2022-10-17T05:42:15;13.80;99.90
11991;DHT22;6055;52.522;13.446;2022-10-17T05:44:41;13.80;99.90
11991;DHT22;6055;52.522;13.446;2022-10-17T05:47:07;13.70;99.90
11991;DHT22;6055;52.522;13.446;2022-10-17T05:49:33;13.80;99.90
11991;DHT22;6055;52.522;13.446;2022-10-17T05:51:59;13.80;99.90
11991;DHT22;6055;52.522;13.446;2022-10-17T05:54:25;13.80;99.90
11991;DHT22;6055;52.522;13.446;2022-10-17T05:56:51;13.80;99.90
11991;DHT22;6055;52.522;13.446;2022-10-17T05:59:17;13.80;99.90
11991;DHT22;6055;52.522;13.446;2022-10-17T06:01:43;13.80;99.90
11991;DHT22;6055;52.522;13.446;2022-10-17T06:04:08;13.80;99.90
11991;DHT22;6055;52.522;13.446;2022-10-17T06:06:36;13.80;99.90
11991;DHT22;6055;52.522;13.446;2022-10-17T06:09:02;13.80;99.90
11991;DHT22;6055;52.522;13.446;2022-10-17T06:11:28;13.90;99.90
11991;DHT22;6055;52.522;13.446;2022-10-17T06:13:53;13.90;99.90
11991;DHT22;6055;52.522;13.446;2022-10-17T06:16:18;13.90;99.90
11991;DHT22;6055;52.522;13.446;2022-10-17T06:18:44;13.90;99.90
11991;DHT22;6055;52.522;13.446;2022-10-17T06:21:10;13.90;99.90
11991;DHT22;6055;52.522;13.446;2022-10-17T06:23:36;14.00;99.90
11991;DHT22;6055;52.522;13.446;2022-10-17T06:26:04;14.00;99.90
11991;DHT22;6055;52.522;13.446;2022-10-17T06:28:30;14.00;99.90
11991;DHT22;6055;52.522;13.446;2022-10-17T06:30:55;14.10;99.90
11991;DHT22;6055;52.522;13.446;2022-10-17T06:33:21;14.10;99.90
11991;DHT22;6055;52.522;13.446;2022-10-17T06:35:54;14.10;99.90
11991;DHT22;6055;52.522;13.446;2022-10-17T06:38:21;14.10;99.90
11991;DHT22;6055;52.522;13.446;2022-10-17T06:40:46;14.10;99.90
11991;DHT22;6055;52.522;13.446;2022-10-17T06:43:12;14.20;99.90
11991;DHT22;6055;52.522;13.446;2022-10-17T06:45:38;14.20;99.90
11991;DHT22;6055;52.522;13.446;2022-10-17T06:48:04;14.30;99.90
11991;DHT22;6055;52.522;13.446;2022-10-17T06:50:30;14.30;99.90
11991;DHT22;6055;52.522;13.446;2022-10-17T06:52:55;14.40;99.90
11991;DHT22;6055;52.522;13.446;2022-10-17T06:55:21;14.40;99.90
11991;DHT22;6055;52.522;13.446;2022-10-17T06:57:46;14.40;99.90
11991;DHT22;6055;52.522;13.446;2022-10-17T07:00:12;14.40;99.90
11991;DHT22;6055;52.522;13.446;2022-10-17T07:02:38;14.50;99.90
11991;DHT22;6055;52.522;13.446;2022-10-17T07:05:03;14.50;99.90
11991;DHT22;6055;52.522;13.446;2022-10-17T07:07:30;14.50;99.90
11991;DHT22;6055;52.522;13.446;2022-10-17T07:09:56;14.60;99.90
11991;DHT22;6055;52.522;13.446;2022-10-17T07:12:22;14.60;99.90
11991;DHT22;6055;52.522;13.446;2022-10-17T07:14:48;14.70;99.90
11991;DHT22;6055;52.522;13.446;2022-10-17T07:17:15;14.70;99.90
11991;DHT22;6055;52.522;13.446;2022-10-17T07:19:41;14.80;99.90
11991;DHT22;6055;52.522;13.446;2022-10-17T07:22:08;14.80;99.90
11991;DHT22;6055;52.522;13.446;2022-10-17T07:24:33;14.90;99.90
11991;DHT22;6055;52.522;13.446;2022-10-17T07:26:59;14.90;99.90
11991;DHT22;6055;52.522;13.446;2022-10-17T07:29:24;14.90;99.90
11991;DHT22;6055;52.522;13.446;2022-10-17T07:31:50;15.00;99.90
11991;DHT22;6055;52.522;13.446;2022-10-17T07:34:16;15.00;99.90
11991;DHT22;6055;52.522;13.446;2022-10-17T07:36:42;15.10;99.90
11991;DHT22;6055;52.522;13.446;2022-10-17T07:39:07;15.10;99.90
11991;DHT22;6055;52.522;13.446;2022-10-17T07:41:33;15.10;99.90
11991;DHT22;6055;52.522;13.446;2022-10-17T07:43:59;15.20;99.90
11991;DHT22;6055;52.522;13.446;2022-10-17T07:46:24;15.20;99.90
11991;DHT22;6055;52.522;13.446;2022-10-17T07:48:50;15.20;99.90
11991;DHT22;6055;52.522;13.446;2022-10-17T07:51:15;15.30;99.90
11991;DHT22;6055;52.522;13.446;2022-10-17T07:53:42;15.30;99.90
11991;DHT22;6055;52.522;13.446;2022-10-17T07:56:12;15.40;99.90
11991;DHT22;6055;52.522;13.446;2022-10-17T07:58:38;15.40;99.90
11991;DHT22;6055;52.522;13.446;2022-10-17T08:01:08;15.50;99.90
11991;DHT22;6055;52.522;13.446;2022-10-17T08:03:35;15.50;99.90
11991;DHT22;6055;52.522;13.446;2022-10-17T08:06:02;15.60;99.90
11991;DHT22;6055;52.522;13.446;2022-10-17T08:08:28;15.60;99.90
11991;DHT22;6055;52.522;13.446;2022-10-17T08:10:55;15.70;99.90
11991;DHT22;6055;52.522;13.446;2022-10-17T08:13:23;15.70;99.90
11991;DHT22;6055;52.522;13.446;2022-10-17T08:15:49;15.70;99.90
11991;DHT22;6055;52.522;13.446;2022-10-17T08:18:14;15.80;99.90
11991;DHT22;6055;52.522;13.446;2022-10-17T08:20:43;15.90;99.90
11991;DHT22;6055;52.522;13.446;2022-10-17T08:23:09;16.00;99.90
11991;DHT22;6055;52.522;13.446;2022-10-17T08:25:37;16.10;99.90
11991;DHT22;6055;52.522;13.446;2022-10-17T08:28:03;16.20;99.90
11991;DHT22;6055;52.522;13.446;2022-10-17T08:30:29;16.30;99.90
11991;DHT22;6055;52.522;13.446;2022-10-17T08:32:55;16.40;99.90
11991;DHT22;6055;52.522;13.446;2022-10-17T08:35:20;16.40;99.90
11991;DHT22;6055;52.522;13.446;2022-10-17T08:37:46;16.50;99.90
11991;DHT22;6055;52.522;13.446;2022-10-17T08:40:18;16.50;99.90
11991;DHT22;6055;52.522;13.446;2022-10-17T08:42:58;16.60;99.90
11991;DHT22;6055;52.522;13.446;2022-10-17T08:45:53;16.60;99.90
11991;DHT22;6055;52.522;13.446;2022-10-17T08:48:23;16.70;99.90
11991;DHT22;6055;52.522;13.446;2022-10-17T08:50:59;16.70;99.90
11991;DHT22;6055;52.522;13.446;2022-10-17T08:53:38;16.70;99.90
11991;DHT22;6055;52.522;13.446;2022-10-17T08:56:29;16.70;99.90
11991;DHT22;6055;52.522;13.446;2022-10-17T08:58:57;16.80;99.90
11991;DHT22;6055;52.522;13.446;2022-10-17T09:04:44;16.90;99.90
11991;DHT22;6055;52.522;13.446;2022-10-17T09:07:31;17.00;99.90
11991;DHT22;6055;52.522;13.446;2022-10-17T09:13:04;17.20;99.90
11991;DHT22;6055;52.522;13.446;2022-10-17T09:20:44;17.50;99.90
11991;DHT22;6055;52.522;13.446;2022-10-17T09:25:49;17.60;99.90
11991;DHT22;6055;52.522;13.446;2022-10-17T09:28:26;17.70;99.90
11991;DHT22;6055;52.522;13.446;2022-10-17T09:30:59;17.80;99.90
11991;DHT22;6055;52.522;13.446;2022-10-17T09:33:41;17.80;99.90
11991;DHT22;6055;52.522;13.446;2022-10-17T09:38:42;18.10;99.90
11991;DHT22;6055;52.522;13.446;2022-10-17T09:41:26;18.10;99.90
11991;DHT22;6055;52.522;13.446;2022-10-17T09:43:55;18.20;99.90
11991;DHT22;6055;52.522;13.446;2022-10-17T09:46:33;18.30;99.90
11991;DHT22;6055;52.522;13.446;2022-10-17T09:49:05;18.40;99.90
11991;DHT22;6055;52.522;13.446;2022-10-17T09:51:36;18.40;99.90
11991;DHT22;6055;52.522;13.446;2022-10-17T09:54:10;18.50;99.90
11991;DHT22;6055;52.522;13.446;2022-10-17T09:56:59;18.60;99.90
11991;DHT22;6055;52.522;13.446;2022-10-17T09:59:36;18.70;99.90
11991;DHT22;6055;52.522;13.446;2022-10-17T10:02:14;18.80;99.90
11991;DHT22;6055;52.522;13.446;2022-10-17T10:07:20;19.00;99.90
11991;DHT22;6055;52.522;13.446;2022-10-17T10:09:47;19.10;99.90
11991;DHT22;6055;52.522;13.446;2022-10-17T10:12:19;19.30;99.90
11991;DHT22;6055;52.522;13.446;2022-10-17T10:14:45;19.40;99.90
11991;DHT22;6055;52.522;13.446;2022-10-17T10:17:46;19.60;99.90
11991;DHT22;6055;52.522;13.446;2022-10-17T10:20:33;19.70;99.90
11991;DHT22;6055;52.522;13.446;2022-10-17T10:23:13;19.90;99.90
11991;DHT22;6055;52.522;13.446;2022-10-17T10:25:55;20.10;99.90
11991;DHT22;6055;52.522;13.446;2022-10-17T10:28:31;20.20;99.90
11991;DHT22;6055;52.522;13.446;2022-10-17T10:31:00;20.40;99.90
11991;DHT22;6055;52.522;13.446;2022-10-17T10:33:28;20.40;99.90
11991;DHT22;6055;52.522;13.446;2022-10-17T10:35:59;20.50;99.90
11991;DHT22;6055;52.522;13.446;2022-10-17T10:38:27;20.60;99.90
11991;DHT22;6055;52.522;13.446;2022-10-17T10:41:04;20.60;99.90
11991;DHT22;6055;52.522;13.446;2022-10-17T10:43:40;20.50;99.90
11991;DHT22;6055;52.522;13.446;2022-10-17T10:46:21;20.50;99.90
11991;DHT22;6055;52.522;13.446;2022-10-17T10:51:28;20.60;99.90
11991;DHT22;6055;52.522;13.446;2022-10-17T10:54:01;20.60;99.90
11991;DHT22;6055;52.522;13.446;2022-10-17T10:56:37;20.70;99.90
11991;DHT22;6055;52.522;13.446;2022-10-17T11:04:51;21.10;99.90
11991;DHT22;6055;52.522;13.446;2022-10-17T11:07:27;21.10;99.90
11991;DHT22;6055;52.522;13.446;2022-10-17T11:10:29;21.10;99.90
11991;DHT22;6055;52.522;13.446;2022-10-17T11:13:05;21.10;99.90
11991;DHT22;6055;52.522;13.446;2022-10-17T11:15:58;21.30;99.90
11991;DHT22;6055;52.522;13.446;2022-10-17T11:21:05;22.60;99.90
11991;DHT22;6055;52.522;13.446;2022-10-17T11:23:45;23.70;99.90
11991;DHT22;6055;52.522;13.446;2022-10-17T11:26:30;24.80;99.90
11991;DHT22;6055;52.522;13.446;2022-10-17T11:28:59;25.70;98.90
11991;DHT22;6055;52.522;13.446;2022-10-17T11:31:39;26.40;96.80
11991;DHT22;6055;52.522;13.446;2022-10-17T11:34:26;27.10;94.90
11991;DHT22;6055;52.522;13.446;2022-10-17T11:36:57;27.70;93.00
11991;DHT22;6055;52.522;13.446;2022-10-17T11:39:40;28.00;90.60
11991;DHT22;6055;52.522;13.446;2022-10-17T11:42:11;28.20;90.70
11991;DHT22;6055;52.522;13.446;2022-10-17T11:44:39;28.50;87.70
11991;DHT22;6055;52.522;13.446;2022-10-17T11:53:07;28.20;88.00
11991;DHT22;6055;52.522;13.446;2022-10-17T11:55:35;28.10;88.20
11991;DHT22;6055;52.522;13.446;2022-10-17T11:58:18;28.00;86.90
11991;DHT22;6055;52.522;13.446;2022-10-17T12:03:43;27.70;88.60
11991;DHT22;6055;52.522;13.446;2022-10-17T12:11:52;27.70;88.80
11991;DHT22;6055;52.522;13.446;2022-10-17T12:14:34;27.80;87.00
11991;DHT22;6055;52.522;13.446;2022-10-17T12:17:01;27.60;88.50
11991;DHT22;6055;52.522;13.446;2022-10-17T12:19:34;27.30;90.20
11991;DHT22;6055;52.522;13.446;2022-10-17T12:24:42;27.60;88.60
11991;DHT22;6055;52.522;13.446;2022-10-17T12:27:22;28.30;85.30
11991;DHT22;6055;52.522;13.446;2022-10-17T12:29:48;28.50;83.70
11991;DHT22;6055;52.522;13.446;2022-10-17T12:32:14;29.10;81.10
11991;DHT22;6055;52.522;13.446;2022-10-17T12:34:51;29.60;79.30
11991;DHT22;6055;52.522;13.446;2022-10-17T12:37:58;30.10;74.90
11991;DHT22;6055;52.522;13.446;2022-10-17T12:42:59;30.40;72.70
11991;DHT22;6055;52.522;13.446;2022-10-17T12:45:50;30.40;70.90
11991;DHT22;6055;52.522;13.446;2022-10-17T12:56:08;29.60;73.20
11991;DHT22;6055;52.522;13.446;2022-10-17T12:58:34;29.20;73.70
11991;DHT22;6055;52.522;13.446;2022-10-17T13:01:01;28.80;74.80
11991;DHT22;6055;52.522;13.446;2022-10-17T13:03:31;28.60;77.20
11991;DHT22;6055;52.522;13.446;2022-10-17T13:06:02;28.60;77.60
11991;DHT22;6055;52.522;13.446;2022-10-17T13:08:33;28.50;78.50
11991;DHT22;6055;52.522;13.446;2022-10-17T13:10:59;28.10;77.70
11991;DHT22;6055;52.522;13.446;2022-10-17T13:16:03;27.00;84.50
11991;DHT22;6055;52.522;13.446;2022-10-17T13:18:29;26.80;85.90
11991;DHT22;6055;52.522;13.446;2022-10-17T13:21:15;26.60;87.30
11991;DHT22;6055;52.522;13.446;2022-10-17T13:23:40;26.60;88.80
11991;DHT22;6055;52.522;13.446;2022-10-17T13:26:13;26.50;89.40
11991;DHT22;6055;52.522;13.446;2022-10-17T13:28:40;26.40;90.30
11991;DHT22;6055;52.522;13.446;2022-10-17T13:31:06;26.10;91.80
11991;DHT22;6055;52.522;13.446;2022-10-17T13:33:39;25.90;92.10
11991;DHT22;6055;52.522;13.446;2022-10-17T13:36:13;25.90;92.60
11991;DHT22;6055;52.522;13.446;2022-10-17T13:38:40;25.90;92.70
11991;DHT22;6055;52.522;13.446;2022-10-17T13:41:11;26.00;92.30
11991;DHT22;6055;52.522;13.446;2022-10-17T13:43:38;26.10;92.60
11991;DHT22;6055;52.522;13.446;2022-10-17T13:46:05;26.20;92.80
11991;DHT22;6055;52.522;13.446;2022-10-17T13:48:34;26.40;91.80
11991;DHT22;6055;52.522;13.446;2022-10-17T13:51:02;26.40;91.80
11991;DHT22;6055;52.522;13.446;2022-10-17T13:53:38;26.70;91.40
11991;DHT22;6055;52.522;13.446;2022-10-17T13:58:45;27.50;88.10
11991;DHT22;6055;52.522;13.446;2022-10-17T14:01:11;27.60;87.00
11991;DHT22;6055;52.522;13.446;2022-10-17T14:03:43;27.70;86.10
11991;DHT22;6055;52.522;13.446;2022-10-17T14:06:16;27.60;86.80
11991;DHT22;6055;52.522;13.446;2022-10-17T14:08:48;27.40;86.30
11991;DHT22;6055;52.522;13.446;2022-10-17T14:11:22;27.00;89.80
11991;DHT22;6055;52.522;13.446;2022-10-17T14:13:51;26.80;90.50
11991;DHT22;6055;52.522;13.446;2022-10-17T14:16:18;26.30;92.30
11991;DHT22;6055;52.522;13.446;2022-10-17T14:18:47;26.10;93.20
11991;DHT22;6055;52.522;13.446;2022-10-17T14:21:21;25.80;94.10
11991;DHT22;6055;52.522;13.446;2022-10-17T14:23:49;25.60;94.80
11991;DHT22;6055;52.522;13.446;2022-10-17T14:26:22;25.40;95.30
11991;DHT22;6055;52.522;13.446;2022-10-17T14:29:01;25.30;95.90
11991;DHT22;6055;52.522;13.446;2022-10-17T14:31:32;25.30;96.40
11991;DHT22;6055;52.522;13.446;2022-10-17T14:33:59;25.20;96.80
11991;DHT22;6055;52.522;13.446;2022-10-17T14:36:33;25.10;97.20
11991;DHT22;6055;52.522;13.446;2022-10-17T14:38:59;25.00;97.70
11991;DHT22;6055;52.522;13.446;2022-10-17T14:41:27;24.90;98.80
11991;DHT22;6055;52.522;13.446;2022-10-17T14:44:26;24.70;99.80
11991;DHT22;6055;52.522;13.446;2022-10-17T14:47:03;24.60;99.90
11991;DHT22;6055;52.522;13.446;2022-10-17T14:49:36;24.50;99.90
11991;DHT22;6055;52.522;13.446;2022-10-17T14:54:39;24.00;99.90
11991;DHT22;6055;52.522;13.446;2022-10-17T14:57:15;23.80;99.90
11991;DHT22;6055;52.522;13.446;2022-10-17T14:59:41;23.50;99.90
11991;DHT22;6055;52.522;13.446;2022-10-17T15:02:08;23.30;99.90
11991;DHT22;6055;52.522;13.446;2022-10-17T15:04:34;23.10;99.90
11991;DHT22;6055;52.522;13.446;2022-10-17T15:06:59;23.00;99.90
11991;DHT22;6055;52.522;13.446;2022-10-17T15:09:25;22.90;99.90
11991;DHT22;6055;52.522;13.446;2022-10-17T15:11:58;22.90;99.90
11991;DHT22;6055;52.522;13.446;2022-10-17T15:14:24;22.80;99.90
11991;DHT22;6055;52.522;13.446;2022-10-17T15:16:50;22.80;99.90
11991;DHT22;6055;52.522;13.446;2022-10-17T15:19:15;22.80;99.90
11991;DHT22;6055;52.522;13.446;2022-10-17T15:21:41;22.80;99.90
11991;DHT22;6055;52.522;13.446;2022-10-17T15:24:06;22.80;99.90
11991;DHT22;6055;52.522;13.446;2022-10-17T15:26:33;22.80;99.90
11991;DHT22;6055;52.522;13.446;2022-10-17T15:28:59;22.80;99.90
11991;DHT22;6055;52.522;13.446;2022-10-17T15:31:25;22.80;99.90
11991;DHT22;6055;52.522;13.446;2022-10-17T15:33:51;22.80;99.90
11991;DHT22;6055;52.522;13.446;2022-10-17T15:36:26;22.70;99.90
11991;DHT22;6055;52.522;13.446;2022-10-17T15:38:54;22.70;99.90
11991;DHT22;6055;52.522;13.446;2022-10-17T15:41:20;22.60;99.90
11991;DHT22;6055;52.522;13.446;2022-10-17T15:43:47;22.50;99.90
11991;DHT22;6055;52.522;13.446;2022-10-17T15:46:19;22.40;99.90
11991;DHT22;6055;52.522;13.446;2022-10-17T15:48:45;22.30;99.90
11991;DHT22;6055;52.522;13.446;2022-10-17T15:51:11;22.20;99.90
11991;DHT22;6055;52.522;13.446;2022-10-17T15:53:36;22.10;99.90
11991;DHT22;6055;52.522;13.446;2022-10-17T15:56:03;22.00;99.90
11991;DHT22;6055;52.522;13.446;2022-10-17T15:58:37;22.00;99.90
11991;DHT22;6055;52.522;13.446;2022-10-17T16:01:04;21.90;99.90
11991;DHT22;6055;52.522;13.446;2022-10-17T16:03:30;21.80;99.90
11991;DHT22;6055;52.522;13.446;2022-10-17T16:05:56;21.80;99.90
11991;DHT22;6055;52.522;13.446;2022-10-17T16:08:22;21.70;99.90
11991;DHT22;6055;52.522;13.446;2022-10-17T16:10:47;21.70;99.90
11991;DHT22;6055;52.522;13.446;2022-10-17T16:13:22;21.70;99.90
11991;DHT22;6055;52.522;13.446;2022-10-17T16:15:48;21.60;99.90
11991;DHT22;6055;52.522;13.446;2022-10-17T16:18:13;21.60;99.90
11991;DHT22;6055;52.522;13.446;2022-10-17T16:20:39;21.50;99.90
11991;DHT22;6055;52.522;13.446;2022-10-17T16:23:05;21.50;99.90
11991;DHT22;6055;52.522;13.446;2022-10-17T16:25:32;21.40;99.90
11991;DHT22;6055;52.522;13.446;2022-10-17T16:27:59;21.30;99.90
11991;DHT22;6055;52.522;13.446;2022-10-17T16:30:28;21.30;99.90
11991;DHT22;6055;52.522;13.446;2022-10-17T16:32:54;21.20;99.90
11991;DHT22;6055;52.522;13.446;2022-10-17T16:35:23;21.20;99.90
11991;DHT22;6055;52.522;13.446;2022-10-17T16:37:48;21.10;99.90
11991;DHT22;6055;52.522;13.446;2022-10-17T16:40:15;21.10;99.90
11991;DHT22;6055;52.522;13.446;2022-10-17T16:42:40;21.00;99.90
11991;DHT22;6055;52.522;13.446;2022-10-17T16:45:06;21.00;99.90
11991;DHT22;6055;52.522;13.446;2022-10-17T16:47:32;20.90;99.90
11991;DHT22;6055;52.522;13.446;2022-10-17T16:49:57;20.80;99.90
11991;DHT22;6055;52.522;13.446;2022-10-17T16:52:23;20.70;99.90
11991;DHT22;6055;52.522;13.446;2022-10-17T16:54:48;20.70;99.90
11991;DHT22;6055;52.522;13.446;2022-10-17T16:57:15;20.60;99.90
11991;DHT22;6055;52.522;13.446;2022-10-17T16:59:40;20.50;99.90
11991;DHT22;6055;52.522;13.446;2022-10-17T17:02:06;20.50;99.90
11991;DHT22;6055;52.522;13.446;2022-10-17T17:04:33;20.40;99.90
11991;DHT22;6055;52.522;13.446;2022-10-17T17:06:59;20.40;99.90
11991;DHT22;6055;52.522;13.446;2022-10-17T17:09:24;20.30;99.90
11991;DHT22;6055;52.522;13.446;2022-10-17T17:11:50;20.30;99.90
11991;DHT22;6055;52.522;13.446;2022-10-17T17:14:15;20.20;99.90
11991;DHT22;6055;52.522;13.446;2022-10-17T17:16:40;20.20;99.90